sensor_id;sensor_type;location;lat;lon;timestamp;pressure;altitude;pressure_sealevel;temperature;humidity
3142;BME280;1581;51.568;6.998;2022-11-09T00:00:06;99970.50;;;16.39;100.00
3142;BME280;1581;51.568;6.998;2022-11-09T00:02:35;99962.91;;;16.20;100.00
3142;BME280;1581;51.568;6.998;2022-11-09T00:05:03;99967.75;;;16.35;100.00
3142;BME280;1581;51.568;6.998;2022-11-09T00:07:41;99958.63;;;16.36;100.00
3142;BME280;1581;51.568;6.998;2022-11-09T00:10:10;99946.09;;;16.13;100.00
3142;BME280;1581;51.568;6.998;2022-11-09T00:12:41;99954.13;;;16.25;100.00
3142;BME280;1581;51.568;6.998;2022-11-09T00:15:10;99951.78;;;16.44;100.00
3142;BME280;1581;51.568;6.998;2022-11-09T00:17:39;99948.44;;;16.38;100.00
3142;BME280;1581;51.568;6.998;2022-11-09T00:20:08;99944.47;;;16.40;100.00
3142;BME280;1581;51.568;6.998;2022-11-09T00:22:37;99951.88;;;16.05;100.00
3142;BME280;1581;51.568;6.998;2022-11-09T00:25:08;99943.53;;;16.18;100.00
3142;BME280;1581;51.568;6.998;2022-11-09T00:27:36;99947.09;;;16.07;100.00
3142;BME280;1581;51.568;6.998;2022-11-09T00:30:09;99943.25;;;15.87;100.00
3142;BME280;1581;51.568;6.998;2022-11-09T00:32:37;99935.41;;;15.85;100.00
3142;BME280;1581;51.568;6.998;2022-11-09T00:35:05;99925.50;;;16.02;100.00
3142;BME280;1581;51.568;6.998;2022-11-09T00:37:33;99924.69;;;16.02;100.00
3142;BME280;1581;51.568;6.998;2022-11-09T00:40:00;99939.78;;;16.19;100.00
3142;BME280;1581;51.568;6.998;2022-11-09T00:42:28;99937.50;;;16.11;100.00
3142;BME280;1581;51.568;6.998;2022-11-09T00:44:55;99933.88;;;15.89;100.00
3142;BME280;1581;51.568;6.998;2022-11-09T00:47:24;99939.47;;;15.71;100.00
3142;BME280;1581;51.568;6.998;2022-11-09T00:49:52;99924.44;;;15.87;100.00
3142;BME280;1581;51.568;6.998;2022-11-09T00:52:20;99926.47;;;15.96;100.00
3142;BME280;1581;51.568;6.998;2022-11-09T00:54:47;99934.38;;;16.03;100.00
3142;BME280;1581;51.568;6.998;2022-11-09T00:57:15;99932.66;;;16.13;100.00
3142;BME280;1581;51.568;6.998;2022-11-09T00:59:42;99941.63;;;16.02;100.00
3142;BME280;1581;51.568;6.998;2022-11-09T01:02:11;99945.72;;;16.21;100.00
3142;BME280;1581;51.568;6.998;2022-11-09T01:04:40;99942.63;;;16.13;100.00
3142;BME280;1581;51.568;6.998;2022-11-09T01:07:08;99959.00;;;15.83;100.00
3142;BME280;1581;51.568;6.998;2022-11-09T01:09:36;99945.16;;;15.75;100.00
3142;BME280;1581;51.568;6.998;2022-11-09T01:12:05;99946.34;;;15.95;100.00
3142;BME280;1581;51.568;6.998;2022-11-09T01:14:32;99954.78;;;15.87;100.00
3142;BME280;1581;51.568;6.998;2022-11-09T01:17:00;99944.41;;;15.63;100.00
3142;BME280;1581;51.568;6.998;2022-11-09T01:19:28;99952.50;;;15.79;100.00
3142;BME280;1581;51.568;6.998;2022-11-09T01:21:57;99957.19;;;15.72;100.00
3142;BME280;1581;51.568;6.998;2022-11-09T01:24:24;99957.31;;;15.50;100.00
3142;BME280;1581;51.568;6.998;2022-11-09T01:26:52;99957.47;;;15.87;100.00
3142;BME280;1581;51.568;6.998;2022-11-09T01:29:19;99967.50;;;15.92;100.00
3142;BME280;1581;51.568;6.998;2022-11-09T01:31:47;99962.75;;;15.82;100.00
3142;BME280;1581;51.568;6.998;2022-11-09T01:34:15;99955.53;;;15.83;100.00
3142;BME280;1581;51.568;6.998;2022-11-09T01:36:42;99956.06;;;15.68;100.00
3142;BME280;1581;51.568;6.998;2022-11-09T01:39:11;99962.66;;;15.77;100.00
3142;BME280;1581;51.568;6.998;2022-11-09T01:41:39;99967.78;;;15.79;100.00
3142;BME280;1581;51.568;6.998;2022-11-09T01:44:13;99967.28;;;15.65;100.00
3142;BME280;1581;51.568;6.998;2022-11-09T01:46:49;99969.94;;;15.93;100.00
3142;BME280;1581;51.568;6.998;2022-11-09T01:49:43;99972.41;;;15.95;100.00
3142;BME280;1581;51.568;6.998;2022-11-09T01:52:18;99964.97;;;15.85;100.00
3142;BME280;1581;51.568;6.998;2022-11-09T01:54:52;99971.25;;;15.91;100.00
3142;BME280;1581;51.568;6.998;2022-11-09T01:57:24;99956.84;;;15.69;100.00
3142;BME280;1581;51.568;6.998;2022-11-09T01:59:55;99965.69;;;15.81;100.00
3142;BME280;1581;51.568;6.998;2022-11-09T02:02:25;99969.25;;;15.70;100.00
3142;BME280;1581;51.568;6.998;2022-11-09T02:05:04;99972.56;;;15.60;100.00
3142;BME280;1581;51.568;6.998;2022-11-09T02:07:33;99967.06;;;15.83;100.00
3142;BME280;1581;51.568;6.998;2022-11-09T02:10:07;99974.53;;;15.65;100.00
3142;BME280;1581;51.568;6.998;2022-11-09T02:12:37;99963.97;;;15.47;100.00
3142;BME280;1581;51.568;6.998;2022-11-09T02:15:08;99967.84;;;15.40;100.00
3142;BME280;1581;51.568;6.998;2022-11-09T02:17:37;99959.41;;;15.48;100.00
3142;BME280;1581;51.568;6.998;2022-11-09T02:20:10;99959.47;;;15.64;100.00
3142;BME280;1581;51.568;6.998;2022-11-09T02:22:38;99948.59;;;15.70;100.00
3142;BME280;1581;51.568;6.998;2022-11-09T02:25:08;99950.03;;;15.78;100.00
3142;BME280;1581;51.568;6.998;2022-11-09T02:27:36;99954.69;;;15.66;100.00
3142;BME280;1581;51.568;6.998;2022-11-09T02:30:06;99952.41;;;15.74;100.00
3142;BME280;1581;51.568;6.998;2022-11-09T02:32:34;99950.69;;;15.68;100.00
3142;BME280;1581;51.568;6.998;2022-11-09T02:35:02;99949.75;;;15.24;100.00
3142;BME280;1581;51.568;6.998;2022-11-09T02:37:37;99950.22;;;15.32;100.00
3142;BME280;1581;51.568;6.998;2022-11-09T02:40:09;99944.88;;;15.60;100.00
3142;BME280;1581;51.568;6.998;2022-11-09T02:42:39;99945.25;;;15.52;100.00
3142;BME280;1581;51.568;6.998;2022-11-09T02:45:09;99942.63;;;15.41;100.00
3142;BME280;1581;51.568;6.998;2022-11-09T02:47:38;99939.94;;;15.41;100.00
3142;BME280;1581;51.568;6.998;2022-11-09T02:50:06;99946.50;;;15.33;100.00
3142;BME280;1581;51.568;6.998;2022-11-09T02:52:35;99947.88;;;15.47;100.00
3142;BME280;1581;51.568;6.998;2022-11-09T02:55:03;99947.50;;;15.44;100.00
3142;BME280;1581;51.568;6.998;2022-11-09T02:57:31;99951.41;;;15.13;100.00
3142;BME280;1581;51.568;6.998;2022-11-09T02:59:59;99948.72;;;15.25;100.00
3142;BME280;1581;51.568;6.998;2022-11-09T03:02:27;99943.81;;;15.33;100.00
3142;BME280;1581;51.568;6.998;2022-11-09T03:04:54;99948.81;;;15.18;100.00
3142;BME280;1581;51.568;6.998;2022-11-09T03:07:22;99947.34;;;15.11;100.00
3142;BME280;1581;51.568;6.998;2022-11-09T03:09:51;99952.31;;;15.42;100.00
3142;BME280;1581;51.568;6.998;2022-11-09T03:12:19;99959.34;;;15.31;100.00
3142;BME280;1581;51.568;6.998;2022-11-09T03:14:56;99961.94;;;15.03;100.00
3142;BME280;1581;51.568;6.998;2022-11-09T03:17:24;99960.53;;;15.12;100.00
3142;BME280;1581;51.568;6.998;2022-11-09T03:19:52;99969.16;;;15.14;100.00
3142;BME280;1581;51.568;6.998;2022-11-09T03:22:20;99981.75;;;15.14;100.00
3142;BME280;1581;51.568;6.998;2022-11-09T03:24:50;99977.06;;;15.09;100.00
3142;BME280;1581;51.568;6.998;2022-11-09T03:27:17;99984.09;;;14.99;100.00
3142;BME280;1581;51.568;6.998;2022-11-09T03:29:45;99979.88;;;15.14;100.00
3142;BME280;1581;51.568;6.998;2022-11-09T03:32:12;99981.28;;;15.28;100.00
3142;BME280;1581;51.568;6.998;2022-11-09T03:34:40;99993.53;;;15.01;100.00
3142;BME280;1581;51.568;6.998;2022-11-09T03:37:07;99989.66;;;15.20;100.00
3142;BME280;1581;51.568;6.998;2022-11-09T03:39:35;99988.41;;;15.11;100.00
3142;BME280;1581;51.568;6.998;2022-11-09T03:42:04;99987.59;;;14.99;100.00
3142;BME280;1581;51.568;6.998;2022-11-09T03:44:31;99994.34;;;15.13;100.00
3142;BME280;1581;51.568;6.998;2022-11-09T03:46:59;99999.16;;;15.00;100.00
3142;BME280;1581;51.568;6.998;2022-11-09T03:49:26;100001.81;;;15.34;100.00
3142;BME280;1581;51.568;6.998;2022-11-09T03:51:54;100003.72;;;14.88;100.00
3142;BME280;1581;51.568;6.998;2022-11-09T03:54:21;100000.78;;;14.78;100.00
3142;BME280;1581;51.568;6.998;2022-11-09T03:56:49;99998.66;;;15.03;100.00
3142;BME280;1581;51.568;6.998;2022-11-09T03:59:18;99997.63;;;15.04;100.00
3142;BME280;1581;51.568;6.998;2022-11-09T04:01:45;99998.56;;;15.21;100.00
3142;BME280;1581;51.568;6.998;2022-11-09T04:04:13;99998.88;;;15.36;100.00
3142;BME280;1581;51.568;6.998;2022-11-09T04:06:40;99994.47;;;15.30;100.00
3142;BME280;1581;51.568;6.998;2022-11-09T04:09:09;99995.16;;;15.14;100.00
3142;BME280;1581;51.568;6.998;2022-11-09T04:11:36;99984.53;;;15.30;100.00
3142;BME280;1581;51.568;6.998;2022-11-09T04:14:04;99995.59;;;15.45;100.00
3142;BME280;1581;51.568;6.998;2022-11-09T04:16:33;99998.19;;;15.40;100.00
3142;BME280;1581;51.568;6.998;2022-11-09T04:19:01;100004.72;;;15.33;100.00
3142;BME280;1581;51.568;6.998;2022-11-09T04:21:28;100003.81;;;15.27;100.00
3142;BME280;1581;51.568;6.998;2022-11-09T04:23:55;100003.81;;;15.27;100.00
3142;BME280;1581;51.568;6.998;2022-11-09T04:26:23;100002.75;;;15.28;100.00
3142;BME280;1581;51.568;6.998;2022-11-09T04:28:50;100002.16;;;15.38;100.00
3142;BME280;1581;51.568;6.998;2022-11-09T04:31:18;99998.41;;;15.39;100.00
3142;BME280;1581;51.568;6.998;2022-11-09T04:33:50;99998.16;;;15.52;100.00
3142;BME280;1581;51.568;6.998;2022-11-09T04:36:18;100000.41;;;15.43;100.00
3142;BME280;1581;51.568;6.998;2022-11-09T04:38:45;100000.84;;;15.40;100.00
3142;BME280;1581;51.568;6.998;2022-11-09T04:41:13;99998.25;;;15.56;100.00
3142;BME280;1581;51.568;6.998;2022-11-09T04:43:41;100017.16;;;15.61;100.00
3142;BME280;1581;51.568;6.998;2022-11-09T04:46:08;100019.31;;;15.37;100.00
3142;BME280;1581;51.568;6.998;2022-11-09T04:48:36;100023.88;;;15.25;100.00
3142;BME280;1581;51.568;6.998;2022-11-09T04:51:07;100035.41;;;15.37;100.00
3142;BME280;1581;51.568;6.998;2022-11-09T04:53:36;100020.78;;;15.55;100.00
3142;BME280;1581;51.568;6.998;2022-11-09T04:56:05;100040.19;;;15.35;100.00
3142;BME280;1581;51.568;6.998;2022-11-09T04:58:34;100039.78;;;15.26;100.00
3142;BME280;1581;51.568;6.998;2022-11-09T05:01:02;100026.19;;;15.33;100.00
3142;BME280;1581;51.568;6.998;2022-11-09T05:03:30;100043.69;;;15.24;100.00
3142;BME280;1581;51.568;6.998;2022-11-09T05:05:58;100052.47;;;15.08;100.00
3142;BME280;1581;51.568;6.998;2022-11-09T05:08:27;100047.31;;;15.18;100.00
3142;BME280;1581;51.568;6.998;2022-11-09T05:10:56;100048.97;;;14.96;100.00
3142;BME280;1581;51.568;6.998;2022-11-09T05:13:23;100050.13;;;14.65;100.00
3142;BME280;1581;51.568;6.998;2022-11-09T05:15:51;100045.75;;;14.42;100.00
3142;BME280;1581;51.568;6.998;2022-11-09T05:18:18;100046.78;;;14.41;100.00
3142;BME280;1581;51.568;6.998;2022-11-09T05:20:46;100039.34;;;14.43;100.00
3142;BME280;1581;51.568;6.998;2022-11-09T05:23:13;100042.97;;;14.48;100.00
3142;BME280;1581;51.568;6.998;2022-11-09T05:26:00;100043.16;;;14.35;100.00
3142;BME280;1581;51.568;6.998;2022-11-09T05:28:27;100041.25;;;14.24;100.00
3142;BME280;1581;51.568;6.998;2022-11-09T05:30:55;100040.25;;;14.07;100.00
3142;BME280;1581;51.568;6.998;2022-11-09T05:33:22;100037.78;;;14.24;100.00
3142;BME280;1581;51.568;6.998;2022-11-09T05:35:52;100034.16;;;14.30;100.00
3142;BME280;1581;51.568;6.998;2022-11-09T05:38:20;100041.56;;;14.57;100.00
3142;BME280;1581;51.568;6.998;2022-11-09T05:40:48;100045.44;;;14.61;100.00
3142;BME280;1581;51.568;6.998;2022-11-09T05:43:18;100032.91;;;14.32;100.00
3142;BME280;1581;51.568;6.998;2022-11-09T05:45:46;100036.41;;;14.44;100.00
3142;BME280;1581;51.568;6.998;2022-11-09T05:48:15;100046.38;;;14.78;100.00
3142;BME280;1581;51.568;6.998;2022-11-09T05:50:43;100045.34;;;14.79;100.00
3142;BME280;1581;51.568;6.998;2022-11-09T05:53:11;100038.34;;;14.78;100.00
3142;BME280;1581;51.568;6.998;2022-11-09T05:55:39;100034.13;;;14.70;100.00
3142;BME280;1581;51.568;6.998;2022-11-09T05:58:07;100024.19;;;14.37;100.00
3142;BME280;1581;51.568;6.998;2022-11-09T06:00:37;100029.31;;;14.50;100.00
3142;BME280;1581;51.568;6.998;2022-11-09T06:03:06;100036.09;;;14.52;100.00
3142;BME280;1581;51.568;6.998;2022-11-09T06:05:36;100035.50;;;14.50;100.00
3142;BME280;1581;51.568;6.998;2022-11-09T06:08:06;100031.91;;;14.67;100.00
3142;BME280;1581;51.568;6.998;2022-11-09T06:10:34;100035.97;;;14.47;100.00
3142;BME280;1581;51.568;6.998;2022-11-09T06:13:02;100025.75;;;14.67;100.00
3142;BME280;1581;51.568;6.998;2022-11-09T06:15:30;100034.03;;;14.65;100.00
3142;BME280;1581;51.568;6.998;2022-11-09T06:17:59;100030.06;;;14.68;100.00
3142;BME280;1581;51.568;6.998;2022-11-09T06:20:27;100023.75;;;14.74;100.00
3142;BME280;1581;51.568;6.998;2022-11-09T06:22:57;100041.09;;;14.49;100.00
3142;BME280;1581;51.568;6.998;2022-11-09T06:25:25;100038.50;;;14.31;100.00
3142;BME280;1581;51.568;6.998;2022-11-09T06:27:53;100037.69;;;14.30;100.00
3142;BME280;1581;51.568;6.998;2022-11-09T06:30:21;100040.41;;;14.53;100.00
3142;BME280;1581;51.568;6.998;2022-11-09T06:32:49;100034.94;;;14.19;100.00
3142;BME280;1581;51.568;6.998;2022-11-09T06:35:18;100046.72;;;14.18;100.00
3142;BME280;1581;51.568;6.998;2022-11-09T06:37:45;100049.53;;;14.23;100.00
3142;BME280;1581;51.568;6.998;2022-11-09T06:40:13;100042.22;;;14.30;100.00
3142;BME280;1581;51.568;6.998;2022-11-09T06:42:41;100039.88;;;14.33;100.00
3142;BME280;1581;51.568;6.998;2022-11-09T06:45:10;100052.75;;;14.43;100.00
3142;BME280;1581;51.568;6.998;2022-11-09T06:47:37;100050.25;;;14.00;100.00
3142;BME280;1581;51.568;6.998;2022-11-09T06:50:06;100055.00;;;13.98;100.00
3142;BME280;1581;51.568;6.998;2022-11-09T06:52:36;100056.88;;;14.16;100.00
3142;BME280;1581;51.568;6.998;2022-11-09T06:55:04;100060.94;;;14.18;100.00
3142;BME280;1581;51.568;6.998;2022-11-09T06:57:33;100066.53;;;14.17;100.00
3142;BME280;1581;51.568;6.998;2022-11-09T07:00:01;100065.59;;;14.11;100.00
3142;BME280;1581;51.568;6.998;2022-11-09T07:02:29;100067.56;;;13.98;100.00
3142;BME280;1581;51.568;6.998;2022-11-09T07:04:56;100069.97;;;14.06;100.00
3142;BME280;1581;51.568;6.998;2022-11-09T07:07:24;100077.31;;;14.10;100.00
3142;BME280;1581;51.568;6.998;2022-11-09T07:09:53;100074.69;;;13.74;100.00
3142;BME280;1581;51.568;6.998;2022-11-09T07:12:20;100083.47;;;14.11;100.00
3142;BME280;1581;51.568;6.998;2022-11-09T07:14:48;100082.53;;;14.05;100.00
3142;BME280;1581;51.568;6.998;2022-11-09T07:17:16;100081.56;;;14.00;100.00
3142;BME280;1581;51.568;6.998;2022-11-09T07:19:43;100091.63;;;14.22;100.00
3142;BME280;1581;51.568;6.998;2022-11-09T07:22:11;100083.56;;;14.04;100.00
3142;BME280;1581;51.568;6.998;2022-11-09T07:24:38;100094.22;;;13.93;100.00
3142;BME280;1581;51.568;6.998;2022-11-09T07:27:08;100093.69;;;14.20;100.00
3142;BME280;1581;51.568;6.998;2022-11-09T07:29:35;100094.22;;;14.40;100.00
3142;BME280;1581;51.568;6.998;2022-11-09T07:32:03;100080.16;;;14.45;100.00
3142;BME280;1581;51.568;6.998;2022-11-09T07:34:31;100095.38;;;14.33;100.00
3142;BME280;1581;51.568;6.998;2022-11-09T07:36:58;100085.53;;;14.56;100.00
3142;BME280;1581;51.568;6.998;2022-11-09T07:39:26;100093.31;;;14.46;100.00
3142;BME280;1581;51.568;6.998;2022-11-09T07:41:53;100097.50;;;14.42;100.00
3142;BME280;1581;51.568;6.998;2022-11-09T07:44:22;100096.75;;;14.24;100.00
3142;BME280;1581;51.568;6.998;2022-11-09T07:46:50;100112.03;;;14.35;100.00
3142;BME280;1581;51.568;6.998;2022-11-09T07:49:18;100109.78;;;14.02;100.00
3142;BME280;1581;51.568;6.998;2022-11-09T07:51:45;100110.53;;;13.91;100.00
3142;BME280;1581;51.568;6.998;2022-11-09T07:54:13;100119.66;;;14.02;100.00
3142;BME280;1581;51.568;6.998;2022-11-09T07:56:41;100115.88;;;14.09;100.00
3142;BME280;1581;51.568;6.998;2022-11-09T07:59:08;100119.34;;;14.28;100.00
3142;BME280;1581;51.568;6.998;2022-11-09T08:01:37;100134.72;;;14.50;100.00
3142;BME280;1581;51.568;6.998;2022-11-09T08:04:05;100121.31;;;14.03;100.00
3142;BME280;1581;51.568;6.998;2022-11-09T08:06:33;100127.25;;;14.05;100.00
3142;BME280;1581;51.568;6.998;2022-11-09T08:09:00;100115.22;;;13.96;100.00
3142;BME280;1581;51.568;6.998;2022-11-09T08:11:28;100130.84;;;14.17;100.00
3142;BME280;1581;51.568;6.998;2022-11-09T08:13:56;100118.25;;;14.17;100.00
3142;BME280;1581;51.568;6.998;2022-11-09T08:16:24;100128.84;;;14.12;100.00
3142;BME280;1581;51.568;6.998;2022-11-09T08:18:52;100120.63;;;14.25;100.00
3142;BME280;1581;51.568;6.998;2022-11-09T08:21:20;100130.13;;;14.39;100.00
3142;BME280;1581;51.568;6.998;2022-11-09T08:23:48;100129.56;;;14.19;100.00
3142;BME280;1581;51.568;6.998;2022-11-09T08:26:15;100132.38;;;14.24;100.00
3142;BME280;1581;51.568;6.998;2022-11-09T08:28:43;100139.00;;;14.22;100.00
3142;BME280;1581;51.568;6.998;2022-11-09T08:31:11;100139.56;;;14.42;100.00
3142;BME280;1581;51.568;6.998;2022-11-09T08:33:40;100136.75;;;14.37;100.00
3142;BME280;1581;51.568;6.998;2022-11-09T08:36:11;100141.63;;;14.28;100.00
3142;BME280;1581;51.568;6.998;2022-11-09T08:38:40;100151.94;;;14.43;100.00
3142;BME280;1581;51.568;6.998;2022-11-09T08:41:08;100153.16;;;14.58;100.00
3142;BME280;1581;51.568;6.998;2022-11-09T08:43:36;100144.91;;;14.71;100.00
3142;BME280;1581;51.568;6.998;2022-11-09T08:46:04;100167.88;;;14.78;100.00
3142;BME280;1581;51.568;6.998;2022-11-09T08:48:32;100147.91;;;14.63;100.00
3142;BME280;1581;51.568;6.998;2022-11-09T08:51:00;100146.34;;;14.85;100.00
3142;BME280;1581;51.568;6.998;2022-11-09T08:53:29;100151.34;;;14.81;100.00
3142;BME280;1581;51.568;6.998;2022-11-09T08:55:57;100153.50;;;14.62;100.00
3142;BME280;1581;51.568;6.998;2022-11-09T08:58:25;100168.81;;;14.43;100.00
3142;BME280;1581;51.568;6.998;2022-11-09T09:00:52;100162.47;;;14.56;100.00
3142;BME280;1581;51.568;6.998;2022-11-09T09:03:20;100162.56;;;14.90;100.00
3142;BME280;1581;51.568;6.998;2022-11-09T09:05:48;100160.94;;;15.00;100.00
3142;BME280;1581;51.568;6.998;2022-11-09T09:08:15;100156.84;;;14.86;100.00
3142;BME280;1581;51.568;6.998;2022-11-09T09:10:48;100158.34;;;14.94;100.00
3142;BME280;1581;51.568;6.998;2022-11-09T09:13:15;100170.22;;;14.75;100.00
3142;BME280;1581;51.568;6.998;2022-11-09T09:15:47;100169.53;;;14.79;100.00
3142;BME280;1581;51.568;6.998;2022-11-09T09:18:15;100162.34;;;15.03;100.00
3142;BME280;1581;51.568;6.998;2022-11-09T09:20:42;100167.78;;;14.85;100.00
3142;BME280;1581;51.568;6.998;2022-11-09T09:23:11;100161.88;;;14.94;100.00
3142;BME280;1581;51.568;6.998;2022-11-09T09:25:40;100175.66;;;14.98;100.00
3142;BME280;1581;51.568;6.998;2022-11-09T09:28:09;100170.13;;;14.93;100.00
3142;BME280;1581;51.568;6.998;2022-11-09T09:30:36;100167.16;;;15.24;100.00
3142;BME280;1581;51.568;6.998;2022-11-09T09:33:04;100171.19;;;15.44;100.00
3142;BME280;1581;51.568;6.998;2022-11-09T09:35:31;100170.00;;;15.74;100.00
3142;BME280;1581;51.568;6.998;2022-11-09T09:38:00;100173.25;;;15.76;100.00
3142;BME280;1581;51.568;6.998;2022-11-09T09:40:35;100170.72;;;15.58;100.00
3142;BME280;1581;51.568;6.998;2022-11-09T09:43:13;100181.34;;;15.65;100.00
3142;BME280;1581;51.568;6.998;2022-11-09T09:45:50;100179.69;;;15.75;100.00
3142;BME280;1581;51.568;6.998;2022-11-09T09:48:29;100189.75;;;15.68;100.00
3142;BME280;1581;51.568;6.998;2022-11-09T09:51:03;100190.41;;;15.98;100.00
3142;BME280;1581;51.568;6.998;2022-11-09T09:53:38;100198.94;;;15.95;100.00
3142;BME280;1581;51.568;6.998;2022-11-09T09:56:12;100189.97;;;15.78;100.00
3142;BME280;1581;51.568;6.998;2022-11-09T09:58:50;100191.97;;;15.71;100.00
3142;BME280;1581;51.568;6.998;2022-11-09T10:01:23;100199.16;;;16.05;100.00
3142;BME280;1581;51.568;6.998;2022-11-09T10:03:55;100200.25;;;15.70;100.00
3142;BME280;1581;51.568;6.998;2022-11-09T10:06:37;100209.56;;;15.79;100.00
3142;BME280;1581;51.568;6.998;2022-11-09T10:09:20;100218.31;;;16.09;100.00
3142;BME280;1581;51.568;6.998;2022-11-09T10:11:58;100210.75;;;15.83;100.00
3142;BME280;1581;51.568;6.998;2022-11-09T10:15:00;100199.72;;;16.07;100.00
3142;BME280;1581;51.568;6.998;2022-11-09T10:17:40;100207.84;;;15.73;100.00
3142;BME280;1581;51.568;6.998;2022-11-09T10:20:29;100206.03;;;16.13;100.00
3142;BME280;1581;51.568;6.998;2022-11-09T10:23:28;100203.34;;;16.13;100.00
3142;BME280;1581;51.568;6.998;2022-11-09T10:26:04;100195.97;;;16.31;100.00
3142;BME280;1581;51.568;6.998;2022-11-09T10:28:40;100201.78;;;16.28;100.00
3142;BME280;1581;51.568;6.998;2022-11-09T10:31:16;100197.50;;;16.83;100.00
3142;BME280;1581;51.568;6.998;2022-11-09T10:33:46;100204.84;;;16.32;100.00
3142;BME280;1581;51.568;6.998;2022-11-09T10:36:25;100191.13;;;16.72;99.94
3142;BME280;1581;51.568;6.998;2022-11-09T10:38:59;100202.47;;;16.46;100.00
3142;BME280;1581;51.568;6.998;2022-11-09T10:41:32;100207.03;;;17.02;98.47
3142;BME280;1581;51.568;6.998;2022-11-09T10:44:01;100216.16;;;16.73;98.29
3142;BME280;1581;51.568;6.998;2022-11-09T10:46:30;100206.47;;;16.88;97.97
3142;BME280;1581;51.568;6.998;2022-11-09T10:49:19;100209.06;;;16.67;96.48
3142;BME280;1581;51.568;6.998;2022-11-09T10:51:47;100203.78;;;17.16;92.82
3142;BME280;1581;51.568;6.998;2022-11-09T10:54:19;100222.47;;;17.55;91.68
3142;BME280;1581;51.568;6.998;2022-11-09T10:56:51;100216.69;;;17.30;90.98
3142;BME280;1581;51.568;6.998;2022-11-09T10:59:47;100211.34;;;17.19;90.55
3142;BME280;1581;51.568;6.998;2022-11-09T11:02:44;100210.81;;;16.61;93.84
3142;BME280;1581;51.568;6.998;2022-11-09T11:05:32;100208.84;;;16.85;94.10
3142;BME280;1581;51.568;6.998;2022-11-09T11:08:24;100214.00;;;17.03;90.95
3142;BME280;1581;51.568;6.998;2022-11-09T11:11:20;100206.16;;;16.57;92.76
3142;BME280;1581;51.568;6.998;2022-11-09T11:13:50;100203.97;;;16.82;92.64
3142;BME280;1581;51.568;6.998;2022-11-09T11:16:28;100207.00;;;16.85;91.01
3142;BME280;1581;51.568;6.998;2022-11-09T11:19:00;100212.75;;;16.49;91.62
3142;BME280;1581;51.568;6.998;2022-11-09T11:21:28;100229.31;;;16.58;90.36
3142;BME280;1581;51.568;6.998;2022-11-09T11:24:12;100214.19;;;17.13;90.38
3142;BME280;1581;51.568;6.998;2022-11-09T11:26:53;100209.94;;;17.00;90.08
3142;BME280;1581;51.568;6.998;2022-11-09T11:29:34;100215.78;;;16.97;90.17
3142;BME280;1581;51.568;6.998;2022-11-09T11:32:08;100229.97;;;17.21;89.33
3142;BME280;1581;51.568;6.998;2022-11-09T11:34:38;100214.59;;;17.05;88.90
3142;BME280;1581;51.568;6.998;2022-11-09T11:37:22;100214.00;;;17.03;90.03
3142;BME280;1581;51.568;6.998;2022-11-09T11:40:00;100221.88;;;17.21;88.75
3142;BME280;1581;51.568;6.998;2022-11-09T11:43:14;100229.38;;;17.19;88.75
3142;BME280;1581;51.568;6.998;2022-11-09T11:45:53;100226.41;;;17.04;87.49
3142;BME280;1581;51.568;6.998;2022-11-09T11:51:44;100239.09;;;16.75;89.13
3142;BME280;1581;51.568;6.998;2022-11-09T11:54:27;100226.03;;;16.84;89.68
3142;BME280;1581;51.568;6.998;2022-11-09T11:57:08;100224.72;;;16.70;90.07
3142;BME280;1581;51.568;6.998;2022-11-09T11:59:55;100233.63;;;17.15;89.21
3142;BME280;1581;51.568;6.998;2022-11-09T12:03:11;100231.63;;;16.15;90.21
3142;BME280;1581;51.568;6.998;2022-11-09T12:06:20;100239.41;;;16.51;89.77
3142;BME280;1581;51.568;6.998;2022-11-09T12:09:08;100240.47;;;16.78;88.62
3142;BME280;1581;51.568;6.998;2022-11-09T12:11:53;100253.00;;;16.72;87.73
3142;BME280;1581;51.568;6.998;2022-11-09T12:14:42;100237.56;;;16.40;89.72
3142;BME280;1581;51.568;6.998;2022-11-09T12:17:21;100231.50;;;16.33;89.76
3142;BME280;1581;51.568;6.998;2022-11-09T12:20:19;100235.50;;;17.14;87.08
3142;BME280;1581;51.568;6.998;2022-11-09T12:23:02;100243.31;;;16.71;87.63
3142;BME280;1581;51.568;6.998;2022-11-09T12:25:40;100240.81;;;16.81;87.27
3142;BME280;1581;51.568;6.998;2022-11-09T12:28:31;100249.66;;;16.93;86.36
3142;BME280;1581;51.568;6.998;2022-11-09T12:31:15;100236.81;;;17.12;87.07
3142;BME280;1581;51.568;6.998;2022-11-09T12:33:56;100234.44;;;16.87;86.21
3142;BME280;1581;51.568;6.998;2022-11-09T12:36:33;100246.53;;;16.85;86.94
3142;BME280;1581;51.568;6.998;2022-11-09T12:39:12;100237.78;;;16.38;88.99
3142;BME280;1581;51.568;6.998;2022-11-09T12:41:49;100234.47;;;15.97;90.91
3142;BME280;1581;51.568;6.998;2022-11-09T12:44:23;100235.88;;;15.77;92.20
3142;BME280;1581;51.568;6.998;2022-11-09T12:46:59;100251.06;;;15.71;92.75
3142;BME280;1581;51.568;6.998;2022-11-09T12:49:36;100245.91;;;15.70;93.23
3142;BME280;1581;51.568;6.998;2022-11-09T12:52:06;100230.97;;;15.85;92.79
3142;BME280;1581;51.568;6.998;2022-11-09T12:54:35;100230.69;;;16.21;91.94
3142;BME280;1581;51.568;6.998;2022-11-09T12:57:20;100241.91;;;16.41;90.35
3142;BME280;1581;51.568;6.998;2022-11-09T12:59:51;100251.94;;;16.45;88.63
3142;BME280;1581;51.568;6.998;2022-11-09T13:02:27;100237.00;;;16.66;88.58
3142;BME280;1581;51.568;6.998;2022-11-09T13:04:58;100260.03;;;16.34;89.99
3142;BME280;1581;51.568;6.998;2022-11-09T13:07:48;100258.16;;;16.74;88.50
3142;BME280;1581;51.568;6.998;2022-11-09T13:10:29;100251.34;;;16.43;88.84
3142;BME280;1581;51.568;6.998;2022-11-09T13:13:20;100248.91;;;16.31;89.68
3142;BME280;1581;51.568;6.998;2022-11-09T13:16:09;100245.94;;;16.55;87.86
3142;BME280;1581;51.568;6.998;2022-11-09T13:18:51;100255.50;;;16.62;88.32
3142;BME280;1581;51.568;6.998;2022-11-09T13:21:37;100256.94;;;16.53;89.01
3142;BME280;1581;51.568;6.998;2022-11-09T13:24:53;100255.84;;;16.66;87.72
3142;BME280;1581;51.568;6.998;2022-11-09T13:27:42;100244.41;;;16.87;87.37
3142;BME280;1581;51.568;6.998;2022-11-09T13:30:40;100249.72;;;16.82;87.41
3142;BME280;1581;51.568;6.998;2022-11-09T13:33:29;100252.38;;;16.54;88.70